Time,TemperatureF,DewpointF,PressureIn,WindDirection,WindDirectionDegrees,WindSpeedMPH,WindSpeedGustMPH,Humidity,HourlyPrecipIn,Conditions,Clouds,dailyrainin,SolarRadiationWatts/m^2,SoftwareType,DateUTC
2013-11-20 00:02:00,41.0,33.0,-100.00,SSE,156,0.0,5.0,72,0.00,,,0.00,0.000000,,2013-11-20 05:02:00,
2013-11-20 00:43:00,40.0,35.0,-100.00,SE,146,0.0,2.0,81,0.00,,,0.00,0.000000,,2013-11-20 05:43:00,
2013-11-20 00:53:00,40.0,35.0,-100.00,SE,146,0.0,2.0,81,0.00,,,0.00,0.000000,,2013-11-20 05:53:00,
2013-11-20 01:02:00,40.0,35.0,-100.00,SE,146,0.0,2.0,81,0.00,,,0.00,0.000000,,2013-11-20 06:02:00,
2013-11-20 01:42:00,38.0,34.0,-100.00,SSE,165,0.0,3.0,86,0.00,,,0.00,0.000000,,2013-11-20 06:42:00,
2013-11-20 01:52:00,38.0,34.0,-100.00,SSE,165,0.0,3.0,86,0.00,,,0.00,0.000000,,2013-11-20 06:52:00,
2013-11-20 02:01:00,38.0,34.0,-100.00,SSE,165,0.0,3.0,86,0.00,,,0.00,0.000000,,2013-11-20 07:01:00,
2013-11-20 03:52:00,33.0,30.0,-100.00,East,86,0.0,3.0,88,0.00,,,0.00,0.000000,,2013-11-20 08:52:00,
2013-11-20 04:02:00,33.0,30.0,-100.00,East,86,0.0,3.0,88,0.00,,,0.00,0.000000,,2013-11-20 09:02:00,
2013-11-20 04:44:00,31.0,29.0,-100.00,West,262,1.0,3.0,94,0.00,,,0.00,0.000000,,2013-11-20 09:44:00,
2013-11-20 04:54:00,31.0,29.0,-100.00,West,262,1.0,3.0,94,0.00,,,0.00,0.000000,,2013-11-20 09:54:00,
2013-11-20 05:03:00,31.0,29.0,-100.00,West,262,1.0,3.0,94,0.00,,,0.00,0.000000,,2013-11-20 10:03:00,
2013-11-20 05:53:00,29.0,28.0,-100.00,South,188,1.0,3.0,95,0.00,,,0.00,0.000000,,2013-11-20 10:53:00,
2013-11-20 06:03:00,29.0,28.0,-100.00,South,188,1.0,3.0,95,0.00,,,0.00,0.000000,,2013-11-20 11:03:00,
2013-11-20 07:52:00,28.0,27.0,-100.00,SE,136,0.0,2.0,97,0.00,,,0.00,0.000000,,2013-11-20 12:52:00,
2013-11-20 08:02:00,28.0,27.0,-100.00,SE,136,0.0,2.0,97,0.00,,,0.00,0.000000,,2013-11-20 13:02:00,
2013-11-20 08:42:00,29.0,28.0,-100.00,SSE,159,0.0,2.0,97,0.00,,,0.00,9.000000,,2013-11-20 13:42:00,
2013-11-20 08:52:00,29.0,28.0,-100.00,SSE,159,0.0,2.0,97,0.00,,,0.00,9.000000,,2013-11-20 13:52:00,
2013-11-20 09:02:00,29.0,28.0,-100.00,SSE,159,0.0,2.0,97,0.00,,,0.00,9.000000,,2013-11-20 14:02:00,
2013-11-20 09:42:00,37.0,34.0,-100.00,South,169,2.0,2.0,87,-99.99,,,0.00,122.000000,,2013-11-20 14:42:00,
2013-11-20 09:52:00,37.0,34.0,-100.00,South,169,2.0,2.0,87,-99.99,,,0.00,122.000000,,2013-11-20 14:52:00,
2013-11-20 10:02:00,37.0,34.0,-100.00,South,169,2.0,2.0,87,-99.99,,,0.00,122.000000,,2013-11-20 15:02:00,
2013-11-20 10:43:00,48.0,35.0,-100.00,North,11,1.0,2.0,61,0.00,,,0.00,256.000000,,2013-11-20 15:43:00,
2013-11-20 10:54:00,48.0,35.0,-100.00,North,11,1.0,2.0,61,0.00,,,0.00,256.000000,,2013-11-20 15:54:00,
2013-11-20 11:03:00,48.0,35.0,-100.00,North,11,1.0,2.0,61,0.00,,,0.00,256.000000,,2013-11-20 16:03:00,
2013-11-20 11:43:00,54.0,31.0,-100.00,East,98,3.0,8.0,41,0.00,,,0.00,409.000000,,2013-11-20 16:43:00,
2013-11-20 11:52:00,54.0,31.0,-100.00,East,98,3.0,8.0,41,0.00,,,0.00,409.000000,,2013-11-20 16:52:00,
2013-11-20 12:02:00,54.0,31.0,-100.00,East,98,3.0,8.0,41,0.00,,,0.00,409.000000,,2013-11-20 17:02:00,
2013-11-20 12:42:00,56.0,31.0,-100.00,SSE,147,2.0,9.0,38,0.00,,,0.00,489.000000,,2013-11-20 17:42:00,
2013-11-20 12:52:00,56.0,31.0,-100.00,SSE,147,2.0,9.0,38,0.00,,,0.00,489.000000,,2013-11-20 17:52:00,
2013-11-20 13:02:00,56.0,31.0,-100.00,SSE,147,2.0,9.0,38,0.00,,,0.00,489.000000,,2013-11-20 18:02:00,
2013-11-20 13:43:00,59.0,30.0,-100.00,WSW,250,3.0,11.0,33,0.00,,,0.00,516.000000,,2013-11-20 18:43:00,
2013-11-20 13:52:00,59.0,30.0,-100.00,WSW,250,3.0,11.0,33,0.00,,,0.00,516.000000,,2013-11-20 18:52:00,
2013-11-20 14:02:00,59.0,30.0,-100.00,WSW,250,3.0,11.0,33,0.00,,,0.00,516.000000,,2013-11-20 19:02:00,
2013-11-20 14:42:00,60.0,28.0,-100.00,ESE,119,0.0,10.0,30,0.00,,,0.00,480.000000,,2013-11-20 19:42:00,
2013-11-20 14:52:00,60.0,28.0,-100.00,ESE,119,0.0,10.0,30,0.00,,,0.00,480.000000,,2013-11-20 19:52:00,
2013-11-20 15:01:00,60.0,28.0,-100.00,ESE,119,0.0,10.0,30,0.00,,,0.00,480.000000,,2013-11-20 20:01:00,
2013-11-20 15:42:00,60.0,28.0,-100.00,South,169,4.0,11.0,30,0.00,,,0.00,405.000000,,2013-11-20 20:42:00,
2013-11-20 15:52:00,60.0,28.0,-100.00,South,169,4.0,11.0,30,0.00,,,0.00,405.000000,,2013-11-20 20:52:00,
2013-11-20 16:02:00,60.0,28.0,-100.00,South,169,4.0,11.0,30,0.00,,,0.00,405.000000,,2013-11-20 21:02:00,
2013-11-20 16:43:00,60.0,29.0,-100.00,SSW,201,6.0,9.0,31,0.00,,,0.00,279.000000,,2013-11-20 21:43:00,
2013-11-20 16:53:00,60.0,29.0,-100.00,SSW,201,6.0,9.0,31,0.00,,,0.00,279.000000,,2013-11-20 21:53:00,
2013-11-20 17:03:00,60.0,29.0,-100.00,SSW,201,6.0,9.0,31,0.00,,,0.00,279.000000,,2013-11-20 22:03:00,
2013-11-20 17:42:00,58.0,33.0,-100.00,SSW,210,0.0,7.0,38,0.00,,,0.00,133.000000,,2013-11-20 22:42:00,
2013-11-20 17:53:00,58.0,33.0,-100.00,SSW,210,0.0,7.0,38,0.00,,,0.00,133.000000,,2013-11-20 22:53:00,
2013-11-20 18:02:00,58.0,33.0,-100.00,SSW,210,0.0,7.0,38,0.00,,,0.00,133.000000,,2013-11-20 23:02:00,